createdAt,value
2019-04-25T00:00:02.129Z,9.1
2019-04-25T00:05:03.365Z,9.1
2019-04-25T00:10:02.805Z,9.1
2019-04-25T00:15:03.339Z,9.1
2019-04-25T00:20:02.702Z,9.0
2019-04-25T00:25:14.333Z,9.1
2019-04-25T00:30:02.635Z,9.0
2019-04-25T00:35:02.332Z,9.0
2019-04-25T00:40:02.743Z,9.1
2019-04-25T00:45:03.182Z,9.5
2019-04-25T00:50:02.609Z,9.5
2019-04-25T00:55:03.055Z,9.6
2019-04-25T01:00:02.539Z,9.6
2019-04-25T01:05:02.902Z,9.8
2019-04-25T01:10:03.352Z,9.6
2019-04-25T01:15:02.721Z,9.5
2019-04-25T01:20:04.157Z,9.5
2019-04-25T01:25:03.833Z,9.5
2019-04-25T01:30:04.019Z,9.5
2019-04-25T01:35:04.049Z,9.5
2019-04-25T01:40:04.140Z,9.5
2019-04-25T01:45:04.077Z,9.3
2019-04-25T01:50:03.942Z,9.3
2019-04-25T01:55:03.493Z,9.3
2019-04-25T02:00:03.925Z,9.1
2019-04-25T02:05:04.988Z,9.1
2019-04-25T02:10:03.784Z,9.0
2019-04-25T02:15:05.949Z,8.8
2019-04-25T02:20:04.110Z,8.6
2019-04-25T02:25:04.425Z,8.6
2019-04-25T02:30:04.330Z,8.3
2019-04-25T02:35:07.887Z,8.3
2019-04-25T02:40:06.616Z,8.3
2019-04-25T02:45:06.717Z,8.1
2019-04-25T02:50:06.863Z,8.0
2019-04-25T02:55:04.946Z,8.0
2019-04-25T03:00:05.939Z,8.0
2019-04-25T03:05:06.214Z,8.1
2019-04-25T03:10:05.725Z,8.1
2019-04-25T03:15:05.440Z,8.1
2019-04-25T03:20:06.646Z,8.1
2019-04-25T03:25:06.356Z,8.3
2019-04-25T03:30:04.397Z,8.3
2019-04-25T03:35:04.510Z,8.3
2019-04-25T03:40:04.534Z,8.5
2019-04-25T03:45:04.692Z,8.5
2019-04-25T03:50:05.784Z,8.5
2019-04-25T03:55:05.101Z,8.5
2019-04-25T04:00:05.948Z,8.3
2019-04-25T04:05:05.629Z,8.1
2019-04-25T04:10:04.520Z,8.0
2019-04-25T04:15:04.737Z,8.0
2019-04-25T04:20:03.987Z,8.0
2019-04-25T04:25:03.754Z,8.0
2019-04-25T04:30:04.115Z,8.0
2019-04-25T04:35:03.484Z,8.0
2019-04-25T04:40:03.589Z,8.0
2019-04-25T04:45:03.692Z,8.0
2019-04-25T04:50:03.901Z,8.1
2019-04-25T04:55:07.733Z,8.5
2019-04-25T05:00:03.686Z,8.8
2019-04-25T05:05:03.654Z,9.0
2019-04-25T05:10:03.393Z,9.0
2019-04-25T05:15:03.758Z,9.1
2019-04-25T05:20:03.543Z,9.5
2019-04-25T05:25:03.444Z,9.6
2019-04-25T05:30:04.013Z,10.0
2019-04-25T05:35:03.370Z,10.1
2019-04-25T05:40:03.706Z,10.1
2019-04-25T05:45:04.436Z,10.5
2019-04-25T05:50:04.166Z,10.8
2019-04-25T05:55:03.964Z,10.8
2019-04-25T06:00:03.666Z,10.8
2019-04-25T06:05:03.565Z,11.0
2019-04-25T06:10:04.120Z,11.1
2019-04-25T06:15:03.011Z,11.3
2019-04-25T06:20:05.971Z,11.3
2019-04-25T06:25:06.093Z,11.3
2019-04-25T06:30:04.382Z,11.3
2019-04-25T06:35:04.178Z,11.6
2019-04-25T06:40:03.454Z,11.8
2019-04-25T06:45:03.581Z,11.8
2019-04-25T06:50:04.293Z,11.8
2019-04-25T06:55:03.395Z,11.8
2019-04-25T07:00:04.441Z,11.8
2019-04-25T07:05:03.946Z,11.8
2019-04-25T07:10:03.630Z,12.1
2019-04-25T07:15:03.932Z,13.1
2019-04-25T07:20:03.838Z,13.1
2019-04-25T07:25:03.672Z,13.6
2019-04-25T07:30:04.036Z,13.5
2019-04-25T07:35:03.652Z,13.1
2019-04-25T07:40:04.115Z,13.5
2019-04-25T07:45:04.179Z,13.5
2019-04-25T07:50:04.004Z,13.3
2019-04-25T07:55:03.780Z,13.5
2019-04-25T08:00:04.744Z,13.6
2019-04-25T08:05:04.259Z,13.6
2019-04-25T08:10:04.061Z,14.0
2019-04-25T08:15:04.065Z,14.5
2019-04-25T08:20:03.978Z,14.3
2019-04-25T08:25:03.665Z,14.1
2019-04-25T08:30:04.363Z,14.3
2019-04-25T08:35:03.813Z,15.0
2019-04-25T08:40:04.040Z,15.5
2019-04-25T08:45:03.720Z,16.2
2019-04-25T08:50:03.707Z,15.8
2019-04-25T08:55:04.288Z,16.6
2019-04-25T09:00:03.985Z,16.7
2019-04-25T09:05:04.024Z,17.3
2019-04-25T09:10:03.544Z,17.3
2019-04-25T09:15:04.154Z,17.7
2019-04-25T09:20:04.030Z,19.0
2019-04-25T09:25:03.829Z,18.5
2019-04-25T09:30:03.936Z,17.1
2019-04-25T09:35:03.755Z,16.6
2019-04-25T09:40:04.248Z,18.5
2019-04-25T09:45:03.774Z,18.2
2019-04-25T09:50:04.170Z,18.7
2019-04-25T09:55:03.512Z,18.1
2019-04-25T10:00:03.673Z,17.8
2019-04-25T10:05:04.034Z,17.7
2019-04-25T10:10:03.746Z,18.1
2019-04-25T10:15:04.489Z,18.2
2019-04-25T10:20:03.012Z,18.2
2019-04-25T10:25:03.337Z,20.1
2019-04-25T10:30:16.056Z,19.7
2019-04-25T10:35:02.566Z,19.7
2019-04-25T10:40:04.304Z,20.0
2019-04-25T10:45:04.169Z,19.3
2019-04-25T10:50:03.803Z,19.1
2019-04-25T10:55:04.189Z,18.6
2019-04-25T11:00:06.547Z,18.5
2019-04-25T11:05:03.560Z,19.0
2019-04-25T11:10:03.572Z,19.1
2019-04-25T11:15:03.985Z,19.5
2019-04-25T11:20:05.177Z,19.3
2019-04-25T11:25:02.848Z,19.1
2019-04-25T11:30:10.934Z,19.1
2019-04-25T11:35:03.522Z,20.1
2019-04-25T11:40:04.243Z,21.2
2019-04-25T11:45:04.462Z,20.0
2019-04-25T11:50:03.927Z,19.2
2019-04-25T11:55:04.171Z,19.1
2019-04-25T12:00:04.269Z,18.5
2019-04-25T12:05:02.827Z,18.7
2019-04-25T12:10:03.758Z,19.1
2019-04-25T12:15:04.443Z,19.2
2019-04-25T12:20:03.913Z,19.5
2019-04-25T12:25:02.437Z,19.3
2019-04-25T12:30:05.096Z,19.7
2019-04-25T12:35:04.115Z,20.1
2019-04-25T12:40:04.400Z,21.8
2019-04-25T12:45:03.942Z,21.5
2019-04-25T12:50:03.979Z,22.1
2019-04-25T12:55:03.961Z,23.2
2019-04-25T13:00:04.047Z,21.0
2019-04-25T13:05:05.512Z,21.0
2019-04-25T13:10:15.382Z,22.3
2019-04-25T13:15:17.728Z,23.1
2019-04-25T13:20:04.086Z,22.7
2019-04-25T13:30:24.067Z,22.1
2019-04-25T13:35:03.834Z,23.2
2019-04-25T13:40:50.120Z,23.0
2019-04-25T13:45:03.535Z,23.6
2019-04-25T13:50:02.484Z,22.2
2019-04-25T13:55:03.804Z,22.6
2019-04-25T14:00:04.111Z,22.6
2019-04-25T14:05:03.638Z,21.7
2019-04-25T14:10:03.283Z,21.3
2019-04-25T14:15:03.898Z,23.0
2019-04-25T14:20:04.266Z,23.0
2019-04-25T14:26:45.349Z,22.6
2019-04-25T14:30:59.963Z,22.0
2019-04-25T14:34:43.263Z,22.0
2019-04-25T14:35:03.467Z,20.8
2019-04-25T14:40:04.090Z,20.2
2019-04-25T14:45:02.634Z,19.5
2019-04-25T14:50:03.090Z,18.8
2019-04-25T14:55:02.609Z,18.7
2019-04-25T15:00:04.549Z,18.7
2019-04-25T15:05:03.317Z,18.5
2019-04-25T15:10:02.812Z,18.2
2019-04-25T15:15:03.237Z,18.1
2019-04-25T15:20:02.644Z,17.8
2019-04-25T15:25:03.112Z,17.8
2019-04-25T15:30:02.516Z,17.8
2019-04-25T15:35:02.969Z,17.7
2019-04-25T15:40:02.381Z,17.7
2019-04-25T15:45:02.835Z,17.3
2019-04-25T15:50:03.316Z,16.7
2019-04-25T15:55:07.318Z,16.7
2019-04-25T16:00:03.384Z,16.2
2019-04-25T16:05:02.855Z,16.2
2019-04-25T16:10:03.308Z,15.8
2019-04-25T16:15:02.713Z,15.8
2019-04-25T16:20:03.173Z,15.8
2019-04-25T16:25:02.614Z,15.8
2019-04-25T16:30:03.024Z,16.0
2019-04-25T16:35:02.445Z,16.0
2019-04-25T16:40:02.904Z,16.2
2019-04-25T16:45:03.358Z,16.2
2019-04-25T16:50:02.832Z,16.2
2019-04-25T16:55:03.277Z,16.2
2019-04-25T17:00:02.685Z,16.2
2019-04-25T17:05:03.180Z,16.0
2019-04-25T17:10:01.871Z,15.8
2019-04-25T17:15:02.501Z,15.8
2019-04-25T17:20:02.113Z,15.8
2019-04-25T17:25:02.543Z,15.8
2019-04-25T17:30:03.001Z,15.8
2019-04-25T17:35:02.510Z,15.6
2019-04-25T17:40:02.148Z,15.6
2019-04-25T17:45:02.560Z,15.3
2019-04-25T17:50:03.028Z,15.1
2019-04-25T17:55:02.437Z,15.1
2019-04-25T18:00:02.890Z,15.0
2019-04-25T18:05:03.352Z,14.8
2019-04-25T18:10:02.773Z,14.6
2019-04-25T18:15:03.188Z,14.5
2019-04-25T18:20:02.630Z,14.3
2019-04-25T18:25:03.155Z,14.3
2019-04-25T18:30:02.566Z,14.3
2019-04-25T18:35:03.053Z,14.3
2019-04-25T18:40:01.677Z,14.3
2019-04-25T18:45:03.241Z,14.3
2019-04-25T18:50:02.738Z,14.3
2019-04-25T18:55:03.152Z,14.1
2019-04-25T19:00:02.620Z,14.0
2019-04-25T19:05:03.113Z,13.8
2019-04-25T19:10:02.534Z,13.6
2019-04-25T19:15:02.943Z,11.8
2019-04-25T19:20:03.421Z,11.6
2019-04-25T19:25:02.954Z,11.6
2019-04-25T19:30:03.405Z,11.6
2019-04-25T19:35:02.799Z,11.6
2019-04-25T19:40:03.257Z,11.6
2019-04-25T19:45:02.663Z,11.3
2019-04-25T19:50:03.212Z,11.1
2019-04-25T19:55:02.622Z,11.0
2019-04-25T20:00:03.070Z,11.1
2019-04-25T20:05:02.480Z,11.3
2019-04-25T20:10:02.950Z,11.3
2019-04-25T20:15:02.453Z,11.1
2019-04-25T20:20:02.904Z,11.0
2019-04-25T20:25:03.347Z,11.0
2019-04-25T20:30:02.742Z,11.0
2019-04-25T20:35:02.481Z,11.0
2019-04-25T20:40:02.959Z,11.1
2019-04-25T20:45:02.473Z,11.0
2019-04-25T20:50:02.925Z,11.0
2019-04-25T20:55:02.413Z,10.8
2019-04-25T21:00:02.893Z,10.8
2019-04-25T21:05:03.312Z,11.0
2019-04-25T21:10:02.844Z,10.8
2019-04-25T21:15:03.755Z,10.8
2019-04-25T21:20:03.303Z,10.8
2019-04-25T21:25:05.443Z,10.8
2019-04-25T21:30:03.025Z,10.8
2019-04-25T21:35:02.586Z,10.8
2019-04-25T21:40:03.054Z,10.8
2019-04-25T21:45:02.772Z,10.8
2019-04-25T21:50:03.356Z,10.8
2019-04-25T21:55:03.736Z,10.8
2019-04-25T22:00:06.719Z,10.8
2019-04-25T22:05:02.840Z,10.8
2019-04-25T22:10:02.629Z,10.8
2019-04-25T22:15:03.496Z,10.8
2019-04-25T22:20:03.991Z,10.8
2019-04-25T22:25:02.738Z,10.8
2019-04-25T22:30:03.448Z,10.8
2019-04-25T22:35:03.729Z,10.8
2019-04-25T22:40:03.312Z,10.8
2019-04-25T22:45:03.791Z,10.8
2019-04-25T22:50:03.309Z,10.8
2019-04-25T22:55:02.801Z,10.8
2019-04-25T23:00:06.964Z,10.8
2019-04-25T23:05:09.251Z,10.8
2019-04-25T23:10:04.337Z,10.8
2019-04-25T23:15:04.041Z,10.8
2019-04-25T23:20:03.371Z,10.8
2019-04-25T23:25:03.455Z,10.8
2019-04-25T23:30:03.903Z,10.8
2019-04-25T23:35:02.669Z,10.8
2019-04-25T23:40:03.338Z,10.8
2019-04-25T23:45:02.824Z,10.8
2019-04-25T23:50:03.280Z,10.8
2019-04-25T23:55:02.714Z,10.8
